sensor_id;sensor_type;location;lat;lon;timestamp;temperature;humidity
69225;DHT22;56333;51.306;17.056;2023-03-01T00:01:02;-3.34;74.80
69225;DHT22;56333;51.306;17.056;2023-03-01T00:02:33;-3.36;74.72
69225;DHT22;56333;51.306;17.056;2023-03-01T00:04:03;-3.37;74.70
69225;DHT22;56333;51.306;17.056;2023-03-01T00:05:32;-3.39;74.72
69225;DHT22;56333;51.306;17.056;2023-03-01T00:07:01;-3.42;74.63
69225;DHT22;56333;51.306;17.056;2023-03-01T00:08:30;-3.43;74.60
69225;DHT22;56333;51.306;17.056;2023-03-01T00:10:00;-3.45;74.53
69225;DHT22;56333;51.306;17.056;2023-03-01T00:11:31;-3.49;74.50
69225;DHT22;56333;51.306;17.056;2023-03-01T00:13:01;-3.51;74.47
69225;DHT22;56333;51.306;17.056;2023-03-01T00:14:30;-3.54;74.50
69225;DHT22;56333;51.306;17.056;2023-03-01T00:15:59;-3.54;74.72
69225;DHT22;56333;51.306;17.056;2023-03-01T00:17:37;-3.54;74.93
69225;DHT22;56333;51.306;17.056;2023-03-01T00:19:06;-3.52;75.30
69225;DHT22;56333;51.306;17.056;2023-03-01T00:20:39;-3.51;75.57
69225;DHT22;56333;51.306;17.056;2023-03-01T00:22:07;-3.48;75.65
69225;DHT22;56333;51.306;17.056;2023-03-01T00:23:36;-3.50;75.57
69225;DHT22;56333;51.306;17.056;2023-03-01T00:25:06;-3.48;75.47
69225;DHT22;56333;51.306;17.056;2023-03-01T00:26:36;-3.49;75.35
69225;DHT22;56333;51.306;17.056;2023-03-01T00:28:05;-3.52;75.22
69225;DHT22;56333;51.306;17.056;2023-03-01T00:29:34;-3.53;75.10
69225;DHT22;56333;51.306;17.056;2023-03-01T00:31:06;-3.54;75.00
69225;DHT22;56333;51.306;17.056;2023-03-01T00:32:38;-3.57;74.97
69225;DHT22;56333;51.306;17.056;2023-03-01T00:34:07;-3.59;74.90
69225;DHT22;56333;51.306;17.056;2023-03-01T00:35:36;-3.62;74.80
69225;DHT22;56333;51.306;17.056;2023-03-01T00:37:06;-3.65;74.85
69225;DHT22;56333;51.306;17.056;2023-03-01T00:38:37;-3.66;74.85
69225;DHT22;56333;51.306;17.056;2023-03-01T00:40:12;-3.70;74.90
69225;DHT22;56333;51.306;17.056;2023-03-01T00:41:43;-3.72;75.25
69225;DHT22;56333;51.306;17.056;2023-03-01T00:43:12;-3.74;75.35
69225;DHT22;56333;51.306;17.056;2023-03-01T00:44:41;-3.74;75.68
69225;DHT22;56333;51.306;17.056;2023-03-01T00:46:11;-3.70;75.70
69225;DHT22;56333;51.306;17.056;2023-03-01T00:47:42;-3.67;75.85
69225;DHT22;56333;51.306;17.056;2023-03-01T00:49:11;-3.64;76.18
69225;DHT22;56333;51.306;17.056;2023-03-01T00:50:40;-3.60;76.47
69225;DHT22;56333;51.306;17.056;2023-03-01T00:52:10;-3.56;76.68
69225;DHT22;56333;51.306;17.056;2023-03-01T00:53:39;-3.54;76.63
69225;DHT22;56333;51.306;17.056;2023-03-01T00:55:10;-3.52;76.43
69225;DHT22;56333;51.306;17.056;2023-03-01T00:56:39;-3.54;76.20
69225;DHT22;56333;51.306;17.056;2023-03-01T00:58:09;-3.53;76.03
69225;DHT22;56333;51.306;17.056;2023-03-01T00:59:38;-3.56;75.88
69225;DHT22;56333;51.306;17.056;2023-03-01T01:01:10;-3.60;75.78
69225;DHT22;56333;51.306;17.056;2023-03-01T01:02:42;-3.60;75.68
69225;DHT22;56333;51.306;17.056;2023-03-01T01:04:12;-3.64;75.50
69225;DHT22;56333;51.306;17.056;2023-03-01T01:05:42;-3.65;75.50
69225;DHT22;56333;51.306;17.056;2023-03-01T01:07:11;-3.66;75.40
69225;DHT22;56333;51.306;17.056;2023-03-01T01:08:41;-3.71;75.32
69225;DHT22;56333;51.306;17.056;2023-03-01T01:10:12;-3.73;75.35
69225;DHT22;56333;51.306;17.056;2023-03-01T01:11:41;-3.74;75.28
69225;DHT22;56333;51.306;17.056;2023-03-01T01:13:11;-3.77;75.20
69225;DHT22;56333;51.306;17.056;2023-03-01T01:14:40;-3.79;75.22
69225;DHT22;56333;51.306;17.056;2023-03-01T01:16:10;-3.81;75.22
69225;DHT22;56333;51.306;17.056;2023-03-01T01:17:39;-3.84;75.18
69225;DHT22;56333;51.306;17.056;2023-03-01T01:19:10;-3.85;75.28
69225;DHT22;56333;51.306;17.056;2023-03-01T01:20:39;-3.84;75.47
69225;DHT22;56333;51.306;17.056;2023-03-01T01:22:08;-3.84;75.80
69225;DHT22;56333;51.306;17.056;2023-03-01T01:23:38;-3.82;76.07
69225;DHT22;56333;51.306;17.056;2023-03-01T01:25:09;-3.79;76.38
69225;DHT22;56333;51.306;17.056;2023-03-01T01:26:38;-3.78;76.38
69225;DHT22;56333;51.306;17.056;2023-03-01T01:28:08;-3.77;76.30
69225;DHT22;56333;51.306;17.056;2023-03-01T01:29:37;-3.77;76.18
69225;DHT22;56333;51.306;17.056;2023-03-01T01:31:06;-3.77;76.03
69225;DHT22;56333;51.306;17.056;2023-03-01T01:32:35;-3.78;75.90
69225;DHT22;56333;51.306;17.056;2023-03-01T01:34:05;-3.79;75.85
69225;DHT22;56333;51.306;17.056;2023-03-01T01:35:46;-3.82;75.80
69225;DHT22;56333;51.306;17.056;2023-03-01T01:37:15;-3.83;75.70
69225;DHT22;56333;51.306;17.056;2023-03-01T01:38:44;-3.85;75.60
69225;DHT22;56333;51.306;17.056;2023-03-01T01:40:14;-3.86;75.55
69225;DHT22;56333;51.306;17.056;2023-03-01T01:41:44;-3.89;75.47
69225;DHT22;56333;51.306;17.056;2023-03-01T01:43:18;-3.91;75.38
69225;DHT22;56333;51.306;17.056;2023-03-01T01:46:56;-3.98;75.47
69225;DHT22;56333;51.306;17.056;2023-03-01T01:48:32;-4.01;75.45
69225;DHT22;56333;51.306;17.056;2023-03-01T01:50:09;-4.03;75.45
69225;DHT22;56333;51.306;17.056;2023-03-01T01:51:45;-4.03;75.50
69225;DHT22;56333;51.306;17.056;2023-03-01T01:53:19;-4.01;75.72
69225;DHT22;56333;51.306;17.056;2023-03-01T01:54:50;-3.99;76.10
69225;DHT22;56333;51.306;17.056;2023-03-01T01:56:26;-3.95;76.43
69225;DHT22;56333;51.306;17.056;2023-03-01T01:57:58;-3.93;76.57
69225;DHT22;56333;51.306;17.056;2023-03-01T01:59:30;-3.91;76.57
69225;DHT22;56333;51.306;17.056;2023-03-01T02:01:01;-3.90;76.50
69225;DHT22;56333;51.306;17.056;2023-03-01T02:02:31;-3.91;76.38
69225;DHT22;56333;51.306;17.056;2023-03-01T02:04:01;-3.93;76.25
69225;DHT22;56333;51.306;17.056;2023-03-01T02:05:35;-3.94;76.20
69225;DHT22;56333;51.306;17.056;2023-03-01T02:07:14;-3.96;76.18
69225;DHT22;56333;51.306;17.056;2023-03-01T02:08:47;-3.97;76.20
69225;DHT22;56333;51.306;17.056;2023-03-01T02:10:18;-3.98;76.13
69225;DHT22;56333;51.306;17.056;2023-03-01T02:11:49;-3.99;76.07
69225;DHT22;56333;51.306;17.056;2023-03-01T02:13:19;-4.00;76.05
69225;DHT22;56333;51.306;17.056;2023-03-01T02:14:48;-4.00;76.00
69225;DHT22;56333;51.306;17.056;2023-03-01T02:16:16;-4.02;75.90
69225;DHT22;56333;51.306;17.056;2023-03-01T02:17:46;-4.04;75.88
69225;DHT22;56333;51.306;17.056;2023-03-01T02:19:22;-4.06;75.82
69225;DHT22;56333;51.306;17.056;2023-03-01T02:21:16;-4.07;75.80
69225;DHT22;56333;51.306;17.056;2023-03-01T02:22:59;-4.06;75.97
69225;DHT22;56333;51.306;17.056;2023-03-01T02:24:33;-4.06;76.32
69225;DHT22;56333;51.306;17.056;2023-03-01T02:26:11;-4.03;76.55
69225;DHT22;56333;51.306;17.056;2023-03-01T02:27:49;-4.01;76.72
69225;DHT22;56333;51.306;17.056;2023-03-01T02:29:24;-4.01;76.63
69225;DHT22;56333;51.306;17.056;2023-03-01T02:30:54;-4.00;76.55
69225;DHT22;56333;51.306;17.056;2023-03-01T02:32:40;-4.02;76.40
69225;DHT22;56333;51.306;17.056;2023-03-01T02:34:11;-4.01;76.35
69225;DHT22;56333;51.306;17.056;2023-03-01T02:35:42;-4.03;76.28
69225;DHT22;56333;51.306;17.056;2023-03-01T02:37:13;-4.06;76.15
69225;DHT22;56333;51.306;17.056;2023-03-01T02:38:49;-4.07;76.10
69225;DHT22;56333;51.306;17.056;2023-03-01T02:40:23;-4.08;76.10
69225;DHT22;56333;51.306;17.056;2023-03-01T02:41:53;-4.10;75.95
69225;DHT22;56333;51.306;17.056;2023-03-01T02:43:26;-4.13;75.90
69225;DHT22;56333;51.306;17.056;2023-03-01T02:44:58;-4.15;75.90
69225;DHT22;56333;51.306;17.056;2023-03-01T02:46:26;-4.19;75.85
69225;DHT22;56333;51.306;17.056;2023-03-01T02:47:56;-4.21;75.88
69225;DHT22;56333;51.306;17.056;2023-03-01T02:49:27;-4.23;75.95
69225;DHT22;56333;51.306;17.056;2023-03-01T02:51:05;-4.24;76.07
69225;DHT22;56333;51.306;17.056;2023-03-01T02:52:44;-4.24;76.32
69225;DHT22;56333;51.306;17.056;2023-03-01T02:54:24;-4.18;76.65
69225;DHT22;56333;51.306;17.056;2023-03-01T02:55:57;-4.16;77.00
69225;DHT22;56333;51.306;17.056;2023-03-01T02:57:28;-4.11;77.28
69225;DHT22;56333;51.306;17.056;2023-03-01T02:58:58;-4.08;77.30
69225;DHT22;56333;51.306;17.056;2023-03-01T03:00:31;-4.08;77.15
69225;DHT22;56333;51.306;17.056;2023-03-01T03:02:16;-4.07;76.93
69225;DHT22;56333;51.306;17.056;2023-03-01T03:04:03;-4.11;76.75
69225;DHT22;56333;51.306;17.056;2023-03-01T03:05:35;-4.11;76.63
69225;DHT22;56333;51.306;17.056;2023-03-01T03:07:04;-4.14;76.47
69225;DHT22;56333;51.306;17.056;2023-03-01T03:08:33;-4.16;76.30
69225;DHT22;56333;51.306;17.056;2023-03-01T03:10:03;-4.19;76.20
69225;DHT22;56333;51.306;17.056;2023-03-01T03:11:35;-4.21;76.20
69225;DHT22;56333;51.306;17.056;2023-03-01T03:13:06;-4.23;76.15
69225;DHT22;56333;51.306;17.056;2023-03-01T03:14:39;-4.25;76.18
69225;DHT22;56333;51.306;17.056;2023-03-01T03:16:09;-4.26;76.18
69225;DHT22;56333;51.306;17.056;2023-03-01T03:17:38;-4.27;76.18
69225;DHT22;56333;51.306;17.056;2023-03-01T03:19:08;-4.29;76.07
69225;DHT22;56333;51.306;17.056;2023-03-01T03:20:38;-4.30;76.00
69225;DHT22;56333;51.306;17.056;2023-03-01T03:22:08;-4.34;76.00
69225;DHT22;56333;51.306;17.056;2023-03-01T03:23:37;-4.34;76.10
69225;DHT22;56333;51.306;17.056;2023-03-01T03:25:07;-4.33;76.38
69225;DHT22;56333;51.306;17.056;2023-03-01T03:26:37;-4.30;76.63
69225;DHT22;56333;51.306;17.056;2023-03-01T03:28:06;-4.28;76.82
69225;DHT22;56333;51.306;17.056;2023-03-01T03:29:36;-4.24;77.13
69225;DHT22;56333;51.306;17.056;2023-03-01T03:31:05;-4.24;77.07
69225;DHT22;56333;51.306;17.056;2023-03-01T03:32:34;-4.24;76.95
69225;DHT22;56333;51.306;17.056;2023-03-01T03:34:03;-4.26;76.78
69225;DHT22;56333;51.306;17.056;2023-03-01T03:35:32;-4.26;76.72
69225;DHT22;56333;51.306;17.056;2023-03-01T03:37:07;-4.28;76.70
69225;DHT22;56333;51.306;17.056;2023-03-01T03:38:56;-4.29;76.60
69225;DHT22;56333;51.306;17.056;2023-03-01T03:40:25;-4.29;76.53
69225;DHT22;56333;51.306;17.056;2023-03-01T03:41:58;-4.31;76.50
69225;DHT22;56333;51.306;17.056;2023-03-01T03:43:27;-4.31;76.40
69225;DHT22;56333;51.306;17.056;2023-03-01T03:44:58;-4.34;76.30
69225;DHT22;56333;51.306;17.056;2023-03-01T03:46:28;-4.36;76.20
69225;DHT22;56333;51.306;17.056;2023-03-01T03:47:56;-4.39;76.10
69225;DHT22;56333;51.306;17.056;2023-03-01T03:49:25;-4.42;76.10
69225;DHT22;56333;51.306;17.056;2023-03-01T03:50:55;-4.45;76.03
69225;DHT22;56333;51.306;17.056;2023-03-01T03:52:25;-4.48;76.05
69225;DHT22;56333;51.306;17.056;2023-03-01T03:53:54;-4.50;76.07
69225;DHT22;56333;51.306;17.056;2023-03-01T03:55:23;-4.51;76.28
69225;DHT22;56333;51.306;17.056;2023-03-01T03:56:54;-4.48;76.57
69225;DHT22;56333;51.306;17.056;2023-03-01T03:58:24;-4.43;76.93
69225;DHT22;56333;51.306;17.056;2023-03-01T03:59:54;-4.39;77.20
69225;DHT22;56333;51.306;17.056;2023-03-01T04:01:23;-4.38;77.43
69225;DHT22;56333;51.306;17.056;2023-03-01T04:02:52;-4.34;77.47
69225;DHT22;56333;51.306;17.056;2023-03-01T04:04:21;-4.32;77.35
69225;DHT22;56333;51.306;17.056;2023-03-01T04:05:50;-4.33;77.18
69225;DHT22;56333;51.306;17.056;2023-03-01T04:07:22;-4.34;76.97
69225;DHT22;56333;51.306;17.056;2023-03-01T04:08:51;-4.33;76.78
69225;DHT22;56333;51.306;17.056;2023-03-01T04:10:23;-4.36;76.63
69225;DHT22;56333;51.306;17.056;2023-03-01T04:11:53;-4.38;76.60
69225;DHT22;56333;51.306;17.056;2023-03-01T04:13:22;-4.40;76.60
69225;DHT22;56333;51.306;17.056;2023-03-01T04:14:52;-4.41;76.65
69225;DHT22;56333;51.306;17.056;2023-03-01T04:16:21;-4.40;76.60
69225;DHT22;56333;51.306;17.056;2023-03-01T04:17:50;-4.41;76.60
69225;DHT22;56333;51.306;17.056;2023-03-01T04:19:20;-4.41;76.55
69225;DHT22;56333;51.306;17.056;2023-03-01T04:20:51;-4.43;76.50
69225;DHT22;56333;51.306;17.056;2023-03-01T04:22:20;-4.45;76.45
69225;DHT22;56333;51.306;17.056;2023-03-01T04:23:53;-4.46;76.40
69225;DHT22;56333;51.306;17.056;2023-03-01T04:25:23;-4.48;76.38
69225;DHT22;56333;51.306;17.056;2023-03-01T04:26:52;-4.50;76.43
69225;DHT22;56333;51.306;17.056;2023-03-01T04:28:22;-4.48;76.68
69225;DHT22;56333;51.306;17.056;2023-03-01T04:29:53;-4.45;76.93
69225;DHT22;56333;51.306;17.056;2023-03-01T04:31:21;-4.42;77.25
69225;DHT22;56333;51.306;17.056;2023-03-01T04:32:50;-4.39;77.40
69225;DHT22;56333;51.306;17.056;2023-03-01T04:34:19;-4.38;77.35
69225;DHT22;56333;51.306;17.056;2023-03-01T04:35:48;-4.38;77.22
69225;DHT22;56333;51.306;17.056;2023-03-01T04:37:21;-4.38;77.13
69225;DHT22;56333;51.306;17.056;2023-03-01T04:38:50;-4.38;77.00
69225;DHT22;56333;51.306;17.056;2023-03-01T04:40:20;-4.39;76.90
69225;DHT22;56333;51.306;17.056;2023-03-01T04:41:49;-4.41;76.80
69225;DHT22;56333;51.306;17.056;2023-03-01T04:43:18;-4.41;76.63
69225;DHT22;56333;51.306;17.056;2023-03-01T04:44:47;-4.42;76.60
69225;DHT22;56333;51.306;17.056;2023-03-01T04:46:18;-4.44;76.50
69225;DHT22;56333;51.306;17.056;2023-03-01T04:47:47;-4.47;76.40
69225;DHT22;56333;51.306;17.056;2023-03-01T04:49:18;-4.49;76.45
69225;DHT22;56333;51.306;17.056;2023-03-01T04:50:47;-4.53;76.22
69225;DHT22;56333;51.306;17.056;2023-03-01T04:52:16;-4.54;76.15
69225;DHT22;56333;51.306;17.056;2023-03-01T04:53:46;-4.58;76.05
69225;DHT22;56333;51.306;17.056;2023-03-01T04:55:16;-4.61;76.03
69225;DHT22;56333;51.306;17.056;2023-03-01T04:56:45;-4.63;76.05
69225;DHT22;56333;51.306;17.056;2023-03-01T04:58:14;-4.66;76.05
69225;DHT22;56333;51.306;17.056;2023-03-01T04:59:45;-4.67;76.20
69225;DHT22;56333;51.306;17.056;2023-03-01T05:01:15;-4.66;76.43
69225;DHT22;56333;51.306;17.056;2023-03-01T05:02:48;-4.64;76.72
69225;DHT22;56333;51.306;17.056;2023-03-01T05:04:18;-4.62;77.03
69225;DHT22;56333;51.306;17.056;2023-03-01T05:05:49;-4.60;77.25
69225;DHT22;56333;51.306;17.056;2023-03-01T05:07:19;-4.58;77.22
69225;DHT22;56333;51.306;17.056;2023-03-01T05:08:48;-4.58;77.18
69225;DHT22;56333;51.306;17.056;2023-03-01T05:10:18;-4.57;77.13
69225;DHT22;56333;51.306;17.056;2023-03-01T05:11:48;-4.56;77.07
69225;DHT22;56333;51.306;17.056;2023-03-01T05:13:16;-4.58;76.90
69225;DHT22;56333;51.306;17.056;2023-03-01T05:14:47;-4.59;76.80
69225;DHT22;56333;51.306;17.056;2023-03-01T05:16:15;-4.61;76.75
69225;DHT22;56333;51.306;17.056;2023-03-01T05:17:44;-4.61;76.68
69225;DHT22;56333;51.306;17.056;2023-03-01T05:19:14;-4.63;76.60
69225;DHT22;56333;51.306;17.056;2023-03-01T05:20:47;-4.64;76.55
69225;DHT22;56333;51.306;17.056;2023-03-01T05:22:16;-4.66;76.50
69225;DHT22;56333;51.306;17.056;2023-03-01T05:23:45;-4.68;76.47
69225;DHT22;56333;51.306;17.056;2023-03-01T05:25:14;-4.69;76.50
69225;DHT22;56333;51.306;17.056;2023-03-01T05:26:43;-4.70;76.53
69225;DHT22;56333;51.306;17.056;2023-03-01T05:28:13;-4.70;76.45
69225;DHT22;56333;51.306;17.056;2023-03-01T05:29:42;-4.68;76.50
69225;DHT22;56333;51.306;17.056;2023-03-01T05:31:10;-4.68;76.78
69225;DHT22;56333;51.306;17.056;2023-03-01T05:32:41;-4.65;77.03
69225;DHT22;56333;51.306;17.056;2023-03-01T05:34:11;-4.62;77.38
69225;DHT22;56333;51.306;17.056;2023-03-01T05:35:41;-4.60;77.47
69225;DHT22;56333;51.306;17.056;2023-03-01T05:37:12;-4.59;77.43
69225;DHT22;56333;51.306;17.056;2023-03-01T05:38:41;-4.59;77.32
69225;DHT22;56333;51.306;17.056;2023-03-01T05:40:13;-4.56;77.20
69225;DHT22;56333;51.306;17.056;2023-03-01T05:41:44;-4.57;77.10
69225;DHT22;56333;51.306;17.056;2023-03-01T05:43:13;-4.57;77.07
69225;DHT22;56333;51.306;17.056;2023-03-01T05:44:43;-4.54;77.05
69225;DHT22;56333;51.306;17.056;2023-03-01T05:46:13;-4.55;76.95
69225;DHT22;56333;51.306;17.056;2023-03-01T05:47:43;-4.55;76.90
69225;DHT22;56333;51.306;17.056;2023-03-01T05:49:14;-4.55;76.88
69225;DHT22;56333;51.306;17.056;2023-03-01T05:50:44;-4.54;76.85
69225;DHT22;56333;51.306;17.056;2023-03-01T05:52:14;-4.54;76.72
69225;DHT22;56333;51.306;17.056;2023-03-01T05:53:45;-4.54;76.68
69225;DHT22;56333;51.306;17.056;2023-03-01T05:55:14;-4.55;76.60
69225;DHT22;56333;51.306;17.056;2023-03-01T05:56:45;-4.55;76.65
69225;DHT22;56333;51.306;17.056;2023-03-01T05:58:16;-4.53;76.68
69225;DHT22;56333;51.306;17.056;2023-03-01T05:59:46;-4.51;76.80
69225;DHT22;56333;51.306;17.056;2023-03-01T06:01:15;-4.45;77.03
69225;DHT22;56333;51.306;17.056;2023-03-01T06:02:45;-4.40;77.40
69225;DHT22;56333;51.306;17.056;2023-03-01T06:04:16;-4.33;77.68
69225;DHT22;56333;51.306;17.056;2023-03-01T06:05:45;-4.27;78.00
69225;DHT22;56333;51.306;17.056;2023-03-01T06:07:14;-4.22;77.93
69225;DHT22;56333;51.306;17.056;2023-03-01T06:08:44;-4.17;77.78
69225;DHT22;56333;51.306;17.056;2023-03-01T06:10:14;-4.13;77.57
69225;DHT22;56333;51.306;17.056;2023-03-01T06:11:45;-4.11;77.35
69225;DHT22;56333;51.306;17.056;2023-03-01T06:13:13;-4.10;77.18
69225;DHT22;56333;51.306;17.056;2023-03-01T06:14:42;-4.07;77.05
69225;DHT22;56333;51.306;17.056;2023-03-01T06:16:12;-4.07;76.97
69225;DHT22;56333;51.306;17.056;2023-03-01T06:17:43;-4.05;76.88
69225;DHT22;56333;51.306;17.056;2023-03-01T06:19:14;-4.05;76.80
69225;DHT22;56333;51.306;17.056;2023-03-01T06:20:44;-4.01;76.85
69225;DHT22;56333;51.306;17.056;2023-03-01T06:22:20;-3.98;76.93
69225;DHT22;56333;51.306;17.056;2023-03-01T06:23:49;-3.97;77.00
69225;DHT22;56333;51.306;17.056;2023-03-01T06:25:19;-3.95;77.43
69225;DHT22;56333;51.306;17.056;2023-03-01T06:26:52;-3.91;77.47
69225;DHT22;56333;51.306;17.056;2023-03-01T06:28:23;-3.84;77.80
69225;DHT22;56333;51.306;17.056;2023-03-01T06:29:53;-3.76;77.80
69225;DHT22;56333;51.306;17.056;2023-03-01T06:31:23;-3.64;78.00
69225;DHT22;56333;51.306;17.056;2023-03-01T06:32:52;-3.55;78.20
69225;DHT22;56333;51.306;17.056;2023-03-01T06:34:27;-3.45;78.32
69225;DHT22;56333;51.306;17.056;2023-03-01T06:35:57;-3.36;78.40
69225;DHT22;56333;51.306;17.056;2023-03-01T06:37:26;-3.28;78.30
69225;DHT22;56333;51.306;17.056;2023-03-01T06:38:54;-3.22;78.20
69225;DHT22;56333;51.306;17.056;2023-03-01T06:40:23;-3.17;78.07
69225;DHT22;56333;51.306;17.056;2023-03-01T06:41:52;-3.13;77.90
69225;DHT22;56333;51.306;17.056;2023-03-01T06:43:21;-3.09;78.10
69225;DHT22;56333;51.306;17.056;2023-03-01T06:44:50;-3.04;77.97
69225;DHT22;56333;51.306;17.056;2023-03-01T06:46:20;-2.96;77.90
69225;DHT22;56333;51.306;17.056;2023-03-01T06:47:50;-2.87;77.90
69225;DHT22;56333;51.306;17.056;2023-03-01T06:49:24;-2.81;78.20
69225;DHT22;56333;51.306;17.056;2023-03-01T06:50:54;-2.72;77.97
69225;DHT22;56333;51.306;17.056;2023-03-01T06:52:27;-2.64;77.95
69225;DHT22;56333;51.306;17.056;2023-03-01T06:53:57;-2.53;78.03
69225;DHT22;56333;51.306;17.056;2023-03-01T06:55:27;-2.42;78.18
69225;DHT22;56333;51.306;17.056;2023-03-01T06:56:56;-2.30;78.32
69225;DHT22;56333;51.306;17.056;2023-03-01T06:58:25;-2.17;78.43
69225;DHT22;56333;51.306;17.056;2023-03-01T06:59:54;-2.07;78.38
69225;DHT22;56333;51.306;17.056;2023-03-01T07:01:24;-1.96;78.15
69225;DHT22;56333;51.306;17.056;2023-03-01T07:02:53;-1.90;77.88
69225;DHT22;56333;51.306;17.056;2023-03-01T07:04:27;-1.82;77.70
69225;DHT22;56333;51.306;17.056;2023-03-01T07:05:57;-1.72;77.55
69225;DHT22;56333;51.306;17.056;2023-03-01T07:07:27;-1.61;77.40
69225;DHT22;56333;51.306;17.056;2023-03-01T07:08:57;-1.54;77.20
69225;DHT22;56333;51.306;17.056;2023-03-01T07:10:28;-1.45;77.00
69225;DHT22;56333;51.306;17.056;2023-03-01T07:11:58;-1.36;76.80
69225;DHT22;56333;51.306;17.056;2023-03-01T07:13:28;-1.30;76.63
69225;DHT22;56333;51.306;17.056;2023-03-01T07:14:59;-1.25;76.43
69225;DHT22;56333;51.306;17.056;2023-03-01T07:16:30;-1.19;76.22
69225;DHT22;56333;51.306;17.056;2023-03-01T07:18:00;-1.13;76.10
69225;DHT22;56333;51.306;17.056;2023-03-01T07:19:29;-1.08;76.00
69225;DHT22;56333;51.306;17.056;2023-03-01T07:20:59;-1.02;75.95
69225;DHT22;56333;51.306;17.056;2023-03-01T07:22:34;-0.96;75.82
69225;DHT22;56333;51.306;17.056;2023-03-01T07:24:08;-0.92;75.72
69225;DHT22;56333;51.306;17.056;2023-03-01T07:25:38;-0.85;75.63
69225;DHT22;56333;51.306;17.056;2023-03-01T07:27:09;-0.80;75.50
69225;DHT22;56333;51.306;17.056;2023-03-01T07:28:40;-0.75;75.43
69225;DHT22;56333;51.306;17.056;2023-03-01T07:30:13;-0.69;75.53
69225;DHT22;56333;51.306;17.056;2023-03-01T07:31:45;-0.61;75.70
69225;DHT22;56333;51.306;17.056;2023-03-01T07:33:15;-0.52;75.85
69225;DHT22;56333;51.306;17.056;2023-03-01T07:34:45;-0.43;76.05
69225;DHT22;56333;51.306;17.056;2023-03-01T07:36:13;-0.37;75.82
69225;DHT22;56333;51.306;17.056;2023-03-01T07:37:43;-0.25;75.85
69225;DHT22;56333;51.306;17.056;2023-03-01T07:39:12;-0.19;75.60
69225;DHT22;56333;51.306;17.056;2023-03-01T07:40:41;-0.11;75.40
69225;DHT22;56333;51.306;17.056;2023-03-01T07:42:11;-0.05;75.20
69225;DHT22;56333;51.306;17.056;2023-03-01T07:43:40;0.01;74.95
69225;DHT22;56333;51.306;17.056;2023-03-01T07:45:10;0.03;74.63
69225;DHT22;56333;51.306;17.056;2023-03-01T07:46:39;0.09;74.50
69225;DHT22;56333;51.306;17.056;2023-03-01T07:48:09;0.14;74.30
69225;DHT22;56333;51.306;17.056;2023-03-01T07:49:38;0.17;74.00
69225;DHT22;56333;51.306;17.056;2023-03-01T07:51:07;0.20;73.93
69225;DHT22;56333;51.306;17.056;2023-03-01T07:52:37;0.25;73.82
69225;DHT22;56333;51.306;17.056;2023-03-01T07:54:06;0.29;73.60
69225;DHT22;56333;51.306;17.056;2023-03-01T07:55:35;0.31;73.32
69225;DHT22;56333;51.306;17.056;2023-03-01T07:57:04;0.35;73.20
69225;DHT22;56333;51.306;17.056;2023-03-01T07:58:37;0.39;72.97
69225;DHT22;56333;51.306;17.056;2023-03-01T08:00:10;0.42;72.90
69225;DHT22;56333;51.306;17.056;2023-03-01T08:01:41;0.47;72.75
69225;DHT22;56333;51.306;17.056;2023-03-01T08:03:10;0.48;72.60
69225;DHT22;56333;51.306;17.056;2023-03-01T08:04:39;0.51;72.50
69225;DHT22;56333;51.306;17.056;2023-03-01T08:06:09;0.55;72.38
69225;DHT22;56333;51.306;17.056;2023-03-01T08:07:40;0.60;72.13
69225;DHT22;56333;51.306;17.056;2023-03-01T08:09:10;0.64;72.10
69225;DHT22;56333;51.306;17.056;2023-03-01T08:10:38;0.67;71.95
69225;DHT22;56333;51.306;17.056;2023-03-01T08:12:07;0.72;71.72
69225;DHT22;56333;51.306;17.056;2023-03-01T08:13:37;0.74;71.55
69225;DHT22;56333;51.306;17.056;2023-03-01T08:15:09;0.78;71.47
69225;DHT22;56333;51.306;17.056;2023-03-01T08:16:38;0.81;71.20
69225;DHT22;56333;51.306;17.056;2023-03-01T08:18:07;0.83;70.82
69225;DHT22;56333;51.306;17.056;2023-03-01T08:19:36;0.86;70.72
69225;DHT22;56333;51.306;17.056;2023-03-01T08:21:08;0.87;70.60
69225;DHT22;56333;51.306;17.056;2023-03-01T08:22:39;0.89;70.47
69225;DHT22;56333;51.306;17.056;2023-03-01T08:24:09;0.92;70.22
69225;DHT22;56333;51.306;17.056;2023-03-01T08:25:38;0.95;69.80
69225;DHT22;56333;51.306;17.056;2023-03-01T08:27:07;0.97;70.18
69225;DHT22;56333;51.306;17.056;2023-03-01T08:28:37;1.00;70.03
69225;DHT22;56333;51.306;17.056;2023-03-01T08:30:09;1.02;69.95
69225;DHT22;56333;51.306;17.056;2023-03-01T08:31:41;1.04;69.78
69225;DHT22;56333;51.306;17.056;2023-03-01T08:33:09;1.05;69.85
69225;DHT22;56333;51.306;17.056;2023-03-01T08:34:38;1.09;69.90
69225;DHT22;56333;51.306;17.056;2023-03-01T08:36:08;1.10;70.40
69225;DHT22;56333;51.306;17.056;2023-03-01T08:37:37;1.14;70.68
69225;DHT22;56333;51.306;17.056;2023-03-01T08:39:07;1.20;70.88
69225;DHT22;56333;51.306;17.056;2023-03-01T08:40:38;1.25;71.40
69225;DHT22;56333;51.306;17.056;2023-03-01T08:42:08;1.33;71.68
69225;DHT22;56333;51.306;17.056;2023-03-01T08:43:37;1.41;71.63
69225;DHT22;56333;51.306;17.056;2023-03-01T08:45:08;1.47;71.07
69225;DHT22;56333;51.306;17.056;2023-03-01T08:46:43;1.48;70.45
69225;DHT22;56333;51.306;17.056;2023-03-01T08:48:14;1.50;70.43
69225;DHT22;56333;51.306;17.056;2023-03-01T08:49:43;1.53;70.47
69225;DHT22;56333;51.306;17.056;2023-03-01T08:51:13;1.57;70.50
69225;DHT22;56333;51.306;17.056;2023-03-01T08:52:44;1.61;70.38
69225;DHT22;56333;51.306;17.056;2023-03-01T08:54:15;1.64;70.30
69225;DHT22;56333;51.306;17.056;2023-03-01T08:55:45;1.67;70.10
69225;DHT22;56333;51.306;17.056;2023-03-01T08:57:14;1.69;69.85
69225;DHT22;56333;51.306;17.056;2023-03-01T08:58:46;1.73;69.90
69225;DHT22;56333;51.306;17.056;2023-03-01T09:00:26;1.75;69.93
69225;DHT22;56333;51.306;17.056;2023-03-01T09:01:55;1.80;69.82
69225;DHT22;56333;51.306;17.056;2023-03-01T09:03:24;1.82;69.78
69225;DHT22;56333;51.306;17.056;2023-03-01T09:04:53;1.86;69.65
69225;DHT22;56333;51.306;17.056;2023-03-01T09:06:21;1.88;69.53
69225;DHT22;56333;51.306;17.056;2023-03-01T09:07:50;1.89;69.25
69225;DHT22;56333;51.306;17.056;2023-03-01T09:09:20;1.91;69.40
69225;DHT22;56333;51.306;17.056;2023-03-01T09:10:49;1.94;69.25
69225;DHT22;56333;51.306;17.056;2023-03-01T09:12:22;1.97;69.00
69225;DHT22;56333;51.306;17.056;2023-03-01T09:13:51;1.99;68.45
69225;DHT22;56333;51.306;17.056;2023-03-01T09:15:19;2.01;68.32
69225;DHT22;56333;51.306;17.056;2023-03-01T09:16:49;2.03;68.30
69225;DHT22;56333;51.306;17.056;2023-03-01T09:18:18;2.04;67.95
69225;DHT22;56333;51.306;17.056;2023-03-01T09:19:47;2.07;67.85
69225;DHT22;56333;51.306;17.056;2023-03-01T09:21:16;2.09;67.70
69225;DHT22;56333;51.306;17.056;2023-03-01T09:22:47;2.10;67.45
69225;DHT22;56333;51.306;17.056;2023-03-01T09:24:15;2.11;67.25
69225;DHT22;56333;51.306;17.056;2023-03-01T09:25:45;2.13;67.28
69225;DHT22;56333;51.306;17.056;2023-03-01T09:27:14;2.15;67.03
69225;DHT22;56333;51.306;17.056;2023-03-01T09:28:45;2.17;66.65